createdAt,value
2019-05-15T00:00:41.405Z,76.91
2019-05-15T00:03:10.400Z,75.73
2019-05-15T00:16:29.054Z,78.44
2019-05-15T00:18:59.094Z,77.68
2019-05-15T00:21:28.786Z,77.82
2019-05-15T00:23:58.633Z,77.97
2019-05-15T00:26:29.973Z,78.56
2019-05-15T00:29:11.630Z,79.15
2019-05-15T00:31:29.704Z,80.23
2019-05-15T00:33:59.371Z,80.62
2019-05-15T00:36:28.636Z,81.46
2019-05-15T00:38:59.075Z,80.24
2019-05-15T00:41:28.297Z,79.87
2019-05-15T00:43:58.459Z,80.35
2019-05-15T00:46:29.039Z,79.84
2019-05-15T00:48:59.221Z,80.12
2019-05-15T00:51:28.560Z,79.00
2019-05-15T00:53:58.923Z,79.93
2019-05-15T00:56:28.468Z,80.88
2019-05-15T00:58:58.778Z,80.55
2019-05-15T01:01:28.633Z,80.86
2019-05-15T01:03:58.571Z,81.17
2019-05-15T01:06:28.485Z,80.93
2019-05-15T01:08:58.856Z,80.83
2019-05-15T01:11:28.453Z,81.20
2019-05-15T01:13:58.508Z,80.54
2019-05-15T01:16:28.133Z,80.83
2019-05-15T01:18:58.628Z,81.03
2019-05-15T01:21:27.882Z,80.80
2019-05-15T01:23:58.808Z,81.10
2019-05-15T01:26:28.220Z,81.79
2019-05-15T01:28:58.373Z,81.50
2019-05-15T01:31:28.515Z,81.37
2019-05-15T01:33:58.332Z,81.70
2019-05-15T01:36:28.831Z,80.84
2019-05-15T01:38:58.419Z,81.39
2019-05-15T01:41:28.154Z,82.16
2019-05-15T01:43:58.152Z,82.17
2019-05-15T01:46:28.598Z,81.41
2019-05-15T01:48:58.574Z,81.99
2019-05-15T01:51:28.572Z,82.42
2019-05-15T01:53:58.439Z,82.11
2019-05-15T01:56:29.343Z,82.86
2019-05-15T01:58:58.084Z,81.89
2019-05-15T02:01:28.334Z,82.68
2019-05-15T02:03:59.002Z,82.98
2019-05-15T02:06:28.464Z,84.19
2019-05-15T02:08:58.756Z,84.83
2019-05-15T02:11:28.891Z,84.19
2019-05-15T02:14:01.021Z,84.31
2019-05-15T02:16:29.821Z,84.44
2019-05-15T02:18:58.634Z,84.10
2019-05-15T02:21:28.867Z,84.37
2019-05-15T02:23:58.801Z,84.24
2019-05-15T02:26:28.315Z,84.32
2019-05-15T02:28:57.595Z,84.53
2019-05-15T02:31:29.860Z,83.89
2019-05-15T02:33:58.991Z,84.25
2019-05-15T02:36:29.320Z,84.77
2019-05-15T02:38:59.649Z,85.45
2019-05-15T02:41:30.726Z,84.84
2019-05-15T02:43:59.546Z,84.64
2019-05-15T02:46:30.064Z,85.47
2019-05-15T02:48:59.321Z,84.61
2019-05-15T02:51:29.878Z,85.81
2019-05-15T02:53:58.831Z,85.61
2019-05-15T02:56:29.291Z,85.64
2019-05-15T02:58:59.899Z,86.10
2019-05-15T03:01:28.869Z,86.45
2019-05-15T03:03:59.623Z,86.80
2019-05-15T03:06:29.825Z,86.51
2019-05-15T03:08:59.697Z,86.12
2019-05-15T03:11:29.457Z,86.16
2019-05-15T03:13:59.282Z,85.21
2019-05-15T03:16:30.292Z,85.27
2019-05-15T03:18:59.853Z,85.98
2019-05-15T03:21:29.635Z,85.67
2019-05-15T03:23:59.398Z,85.46
2019-05-15T03:26:29.938Z,86.60
2019-05-15T03:28:59.190Z,86.45
2019-05-15T03:31:47.840Z,85.57
2019-05-15T03:34:02.706Z,85.20
2019-05-15T03:36:31.838Z,85.25
2019-05-15T03:38:59.912Z,84.84
2019-05-15T03:41:29.865Z,85.36
2019-05-15T03:43:59.649Z,85.23
2019-05-15T03:46:29.282Z,85.63
2019-05-15T03:49:00.569Z,85.65
2019-05-15T03:51:29.607Z,86.40
2019-05-15T03:54:00.333Z,86.75
2019-05-15T03:56:29.707Z,86.31
2019-05-15T03:58:59.752Z,86.93
2019-05-15T04:01:37.967Z,86.83
2019-05-15T04:04:00.022Z,86.40
2019-05-15T04:06:29.834Z,85.73
2019-05-15T04:08:58.843Z,85.96
2019-05-15T04:11:29.378Z,86.09
2019-05-15T04:13:59.365Z,85.84
2019-05-15T04:16:29.667Z,85.77
2019-05-15T04:18:59.343Z,86.51
2019-05-15T04:21:30.330Z,87.23
2019-05-15T04:23:59.761Z,87.33
2019-05-15T04:26:31.572Z,87.81
2019-05-15T04:29:00.459Z,88.17
2019-05-15T04:31:41.174Z,88.45
2019-05-15T04:34:00.227Z,88.38
2019-05-15T04:36:29.818Z,87.52
2019-05-15T04:38:58.804Z,87.26
2019-05-15T04:41:29.908Z,87.04
2019-05-15T04:43:59.743Z,87.06
2019-05-15T04:46:30.005Z,87.53
2019-05-15T04:48:59.706Z,87.42
2019-05-15T04:51:30.502Z,86.96
2019-05-15T04:53:59.820Z,86.90
2019-05-15T04:56:29.442Z,86.55
2019-05-15T04:59:00.038Z,85.13
2019-05-15T05:01:29.424Z,85.05
2019-05-15T05:03:58.986Z,84.88
2019-05-15T05:06:29.417Z,84.96
2019-05-15T05:08:59.650Z,84.99
2019-05-15T05:11:28.856Z,84.54
2019-05-15T05:13:59.093Z,84.07
2019-05-15T05:16:29.525Z,83.29
2019-05-15T05:22:28.225Z,81.46
2019-05-15T05:24:58.467Z,81.15
2019-05-15T05:27:28.827Z,80.29
2019-05-15T05:29:58.681Z,79.22
2019-05-15T05:32:34.613Z,79.95
2019-05-15T05:34:58.903Z,78.90
2019-05-15T05:37:28.072Z,78.69
2019-05-15T05:39:57.706Z,78.05
2019-05-15T05:42:29.009Z,77.39
2019-05-15T05:44:58.226Z,76.57
2019-05-15T05:47:28.809Z,75.99
2019-05-15T05:49:58.269Z,75.22
2019-05-15T05:52:28.006Z,74.89
2019-05-15T05:55:33.698Z,74.71
2019-05-15T05:58:02.527Z,73.97
2019-05-15T06:00:39.198Z,72.78
2019-05-15T06:03:08.896Z,71.66
2019-05-15T06:05:49.147Z,71.70
2019-05-15T06:08:19.669Z,70.72
2019-05-15T06:10:49.660Z,70.71
2019-05-15T06:13:18.986Z,71.16
2019-05-15T06:15:48.783Z,70.24
2019-05-15T06:18:19.620Z,70.20
2019-05-15T06:20:49.771Z,69.87
2019-05-15T06:23:23.153Z,69.72
2019-05-15T06:25:49.651Z,68.79
2019-05-15T06:28:20.076Z,68.39
2019-05-15T06:30:49.226Z,68.10
2019-05-15T06:33:18.853Z,67.00
2019-05-15T06:35:49.011Z,66.09
2019-05-15T06:38:19.302Z,62.14
2019-05-15T06:40:48.943Z,61.90
2019-05-15T06:43:19.196Z,60.44
2019-05-15T06:45:49.265Z,59.26
2019-05-15T06:48:18.699Z,58.77
2019-05-15T06:50:49.034Z,56.68
2019-05-15T06:53:19.110Z,57.36
2019-05-15T06:55:48.818Z,57.28
2019-05-15T06:58:19.007Z,56.16
2019-05-15T07:00:49.236Z,55.29
2019-05-15T07:03:25.159Z,55.11
2019-05-15T07:05:50.603Z,54.63
2019-05-15T07:08:19.935Z,52.48
2019-05-15T07:10:48.972Z,51.04
2019-05-15T07:13:18.477Z,50.42
2019-05-15T07:15:49.573Z,49.19
2019-05-15T07:18:19.905Z,49.11
2019-05-15T07:21:22.768Z,48.59
2019-05-15T07:24:09.239Z,48.19
2019-05-15T07:26:40.749Z,47.34
2019-05-15T07:29:11.605Z,48.06
2019-05-15T07:31:58.614Z,48.56
2019-05-15T07:35:25.742Z,48.95
2019-05-15T07:45:01.992Z,46.97
2019-05-15T07:47:31.832Z,46.55
2019-05-15T07:50:01.041Z,46.81
2019-05-15T07:52:29.982Z,46.94
2019-05-15T07:54:59.382Z,48.07
2019-05-15T07:57:30.250Z,45.30
2019-05-15T07:59:59.038Z,45.00
2019-05-15T08:02:28.544Z,45.00
2019-05-15T08:04:57.701Z,45.30
2019-05-15T08:07:27.898Z,44.08
2019-05-15T08:09:59.292Z,43.64
2019-05-15T08:12:28.355Z,45.19
2019-05-15T08:14:58.262Z,44.03
2019-05-15T08:17:29.719Z,44.43
2019-05-15T08:23:28.436Z,46.74
2019-05-15T08:33:28.243Z,41.90
2019-05-15T08:35:58.896Z,41.90
2019-05-15T08:38:29.014Z,39.60
2019-05-15T08:40:59.181Z,41.51
2019-05-15T08:43:31.342Z,40.35
2019-05-15T08:46:00.479Z,42.36
2019-05-15T08:48:32.781Z,41.60
2019-05-15T08:51:02.408Z,39.70
2019-05-15T08:53:31.451Z,40.81
2019-05-15T08:56:00.492Z,41.50
2019-05-15T08:58:29.436Z,40.76
2019-05-15T09:00:58.903Z,41.78
2019-05-15T09:03:28.656Z,41.06
2019-05-15T09:05:59.003Z,40.41
2019-05-15T09:08:29.293Z,39.55
2019-05-15T09:10:58.907Z,39.46
2019-05-15T09:13:29.227Z,40.84
2019-05-15T09:16:04.393Z,40.66
2019-05-15T09:18:33.605Z,39.86
2019-05-15T09:21:02.684Z,40.07
2019-05-15T09:23:31.501Z,40.48
2019-05-15T09:26:00.531Z,37.71
2019-05-15T09:28:32.605Z,38.65
2019-05-15T09:31:03.809Z,37.79
2019-05-15T09:33:32.664Z,37.13
2019-05-15T09:36:01.651Z,36.06
2019-05-15T09:38:30.743Z,36.49
2019-05-15T09:40:59.709Z,36.34
2019-05-15T09:43:28.952Z,36.73
2019-05-15T09:45:58.552Z,37.98
2019-05-15T09:48:28.649Z,37.28
2019-05-15T09:50:58.708Z,37.06
2019-05-15T09:53:28.768Z,38.69
2019-05-15T09:56:00.042Z,35.47
2019-05-15T09:58:30.224Z,36.22
2019-05-15T10:00:59.675Z,35.19
2019-05-15T10:03:28.769Z,36.74
2019-05-15T10:05:57.891Z,36.04
2019-05-15T10:08:29.216Z,37.02
2019-05-15T10:10:59.378Z,37.38
2019-05-15T10:13:28.976Z,38.77
2019-05-15T10:15:58.616Z,40.14
2019-05-15T10:18:28.359Z,40.98
2019-05-15T10:20:58.126Z,41.21
2019-05-15T10:23:29.103Z,40.12
2019-05-15T10:25:58.856Z,41.97
2019-05-15T10:28:29.274Z,39.66
2019-05-15T10:31:00.007Z,39.36
2019-05-15T10:33:29.760Z,38.37
2019-05-15T10:35:59.159Z,38.41
2019-05-15T10:38:28.594Z,37.77
2019-05-15T10:41:08.187Z,38.50
2019-05-15T10:43:28.731Z,37.83
2019-05-15T10:45:58.752Z,37.21
2019-05-15T10:48:29.228Z,38.07
2019-05-15T10:51:05.776Z,37.30
2019-05-15T10:53:29.647Z,36.82
2019-05-15T10:55:59.715Z,37.21
2019-05-15T10:58:29.361Z,35.52
2019-05-15T11:01:02.028Z,37.32
2019-05-15T11:03:29.853Z,35.39
2019-05-15T11:05:58.887Z,35.56
2019-05-15T11:08:28.973Z,35.98
2019-05-15T11:10:58.578Z,35.24
2019-05-15T11:13:28.866Z,35.65
2019-05-15T11:15:57.952Z,37.17
2019-05-15T11:18:30.510Z,37.34
2019-05-15T11:20:59.343Z,39.05
2019-05-15T11:23:29.270Z,38.71
2019-05-15T11:25:58.355Z,37.35
2019-05-15T11:28:31.548Z,36.36
2019-05-15T11:30:59.473Z,35.59
2019-05-15T11:33:29.196Z,33.31
2019-05-15T11:36:05.398Z,33.72
2019-05-15T11:38:29.143Z,34.81
2019-05-15T11:40:58.136Z,35.66
2019-05-15T11:43:29.230Z,34.73
2019-05-15T11:45:58.920Z,33.23
2019-05-15T11:48:29.801Z,34.17
2019-05-15T11:50:58.521Z,36.18
2019-05-15T11:53:28.412Z,35.37
2019-05-15T11:55:59.867Z,35.25
2019-05-15T11:58:28.386Z,37.86
2019-05-15T12:00:57.959Z,35.08
2019-05-15T12:03:29.072Z,33.43
2019-05-15T12:05:59.695Z,32.48
2019-05-15T12:08:29.429Z,35.08
2019-05-15T12:10:59.522Z,33.85
2019-05-15T12:13:28.464Z,34.78
2019-05-15T12:15:58.936Z,34.29
2019-05-15T12:18:28.682Z,34.74
2019-05-15T12:20:59.591Z,35.77
2019-05-15T12:23:29.175Z,36.72
2019-05-15T12:25:59.738Z,36.10
2019-05-15T12:28:29.565Z,37.04
2019-05-15T12:30:59.835Z,36.24
2019-05-15T12:33:29.256Z,37.51
2019-05-15T12:35:58.498Z,35.98
2019-05-15T12:38:28.931Z,37.16
2019-05-15T13:01:14.772Z,37.55
2019-05-15T13:03:34.180Z,37.50
2019-05-15T13:06:03.264Z,36.42
2019-05-15T13:08:33.497Z,35.34
2019-05-15T13:11:02.674Z,35.75
2019-05-15T13:13:31.647Z,34.36
2019-05-15T13:16:00.481Z,35.15
2019-05-15T13:18:29.393Z,34.45
2019-05-15T13:20:59.495Z,35.06
2019-05-15T13:23:28.758Z,35.44
2019-05-15T13:25:59.255Z,37.40
2019-05-15T13:28:29.074Z,38.71
2019-05-15T13:30:59.520Z,36.94
2019-05-15T13:33:29.037Z,35.63
2019-05-15T13:35:58.588Z,34.33
2019-05-15T13:38:28.874Z,35.34
2019-05-15T13:40:58.903Z,34.72
2019-05-15T13:43:29.067Z,33.39
2019-05-15T13:45:58.464Z,33.33
2019-05-15T13:48:29.268Z,32.63
2019-05-15T13:50:59.046Z,33.58
2019-05-15T13:53:28.089Z,33.58
2019-05-15T13:55:56.855Z,33.77
2019-05-15T13:58:28.020Z,33.41
2019-05-15T14:00:58.834Z,34.34
2019-05-15T14:03:28.433Z,34.99
2019-05-15T14:05:58.642Z,35.85
2019-05-15T14:08:28.861Z,33.76
2019-05-15T14:10:58.354Z,33.75
2019-05-15T14:13:28.778Z,33.59
2019-05-15T14:15:58.298Z,34.58
2019-05-15T14:18:28.648Z,34.86
2019-05-15T14:20:58.376Z,34.58
2019-05-15T14:23:29.543Z,33.95
2019-05-15T14:25:58.988Z,32.85
2019-05-15T14:28:28.969Z,34.60
2019-05-15T14:30:58.624Z,35.35
2019-05-15T14:33:29.168Z,35.04
2019-05-15T14:35:58.315Z,33.48
2019-05-15T14:38:29.106Z,34.93
2019-05-15T14:40:59.094Z,34.43
2019-05-15T14:43:29.329Z,35.48
2019-05-15T14:45:58.811Z,34.58
2019-05-15T14:48:28.235Z,34.40
2019-05-15T14:50:58.427Z,35.52
2019-05-15T14:53:29.481Z,36.00
2019-05-15T14:56:00.260Z,35.08
2019-05-15T14:58:29.439Z,33.72
2019-05-15T15:01:03.489Z,34.42
2019-05-15T15:03:29.070Z,34.84
2019-05-15T15:05:58.816Z,36.82
2019-05-15T15:08:29.239Z,38.49
2019-05-15T15:10:59.411Z,40.12
2019-05-15T15:13:28.951Z,38.53
2019-05-15T15:15:59.075Z,39.21
2019-05-15T15:18:28.405Z,39.33
2019-05-15T15:20:58.003Z,38.79
2019-05-15T15:23:28.321Z,37.14
2019-05-15T15:25:57.915Z,36.59
2019-05-15T15:28:27.016Z,37.01
2019-05-15T15:30:57.914Z,36.81
2019-05-15T15:33:28.827Z,35.03
2019-05-15T15:35:58.065Z,33.98
2019-05-15T15:38:37.599Z,35.38
2019-05-15T15:41:00.232Z,34.14
2019-05-15T15:43:28.865Z,34.45
2019-05-15T15:45:58.188Z,35.54
2019-05-15T15:48:28.532Z,35.17
2019-05-15T15:50:58.663Z,35.91
2019-05-15T15:53:28.577Z,35.66
2019-05-15T15:55:57.579Z,36.31
2019-05-15T15:58:28.855Z,35.79
2019-05-15T16:00:57.053Z,36.05
2019-05-15T16:03:28.461Z,35.54
2019-05-15T16:05:58.100Z,35.84
2019-05-15T16:08:28.535Z,34.88
2019-05-15T16:10:59.013Z,34.90
2019-05-15T16:13:29.211Z,35.69
2019-05-15T16:15:58.369Z,35.04
2019-05-15T16:18:28.939Z,33.91
2019-05-15T16:20:58.067Z,32.99
2019-05-15T16:23:28.252Z,33.71
2019-05-15T16:26:00.609Z,33.62
2019-05-15T16:28:28.967Z,34.12
2019-05-15T16:30:58.569Z,34.17
2019-05-15T16:33:28.292Z,33.94
2019-05-15T16:35:58.120Z,34.73
2019-05-15T16:38:28.430Z,35.47
2019-05-15T16:40:58.381Z,35.58
2019-05-15T16:43:28.606Z,35.89
2019-05-15T16:45:58.742Z,34.85
2019-05-15T16:48:29.327Z,35.56
2019-05-15T16:50:58.668Z,35.49
2019-05-15T16:53:28.983Z,34.94
2019-05-15T16:55:58.790Z,34.51
2019-05-15T16:58:29.640Z,34.94
2019-05-15T17:00:58.622Z,34.59
2019-05-15T17:03:28.875Z,34.77
2019-05-15T17:05:58.745Z,34.73
2019-05-15T17:08:28.903Z,34.57
2019-05-15T17:10:58.770Z,33.96
2019-05-15T17:13:28.765Z,33.96
2019-05-15T17:15:58.397Z,35.04
2019-05-15T17:18:27.540Z,34.73
2019-05-15T17:20:58.865Z,35.33
2019-05-15T17:23:27.720Z,35.49
2019-05-15T17:25:58.163Z,35.15
2019-05-15T17:28:29.075Z,35.61
2019-05-15T17:30:58.351Z,36.16
2019-05-15T17:33:28.932Z,36.21
2019-05-15T17:35:58.227Z,36.73
2019-05-15T17:38:28.674Z,37.08
2019-05-15T17:40:57.988Z,36.56
2019-05-15T17:43:28.747Z,37.54
2019-05-15T17:45:58.273Z,37.19
2019-05-15T17:48:28.949Z,36.79
2019-05-15T17:50:59.189Z,37.20
2019-05-15T17:53:28.775Z,37.27
2019-05-15T17:55:59.355Z,37.22
2019-05-15T17:58:28.811Z,37.37
2019-05-15T18:00:59.439Z,36.58
2019-05-15T18:03:28.967Z,36.62
2019-05-15T18:05:59.126Z,36.19
2019-05-15T18:08:28.702Z,36.65
2019-05-15T18:10:58.695Z,35.70
2019-05-15T18:13:28.679Z,34.65
2019-05-15T18:16:02.764Z,32.97
2019-05-15T18:18:28.476Z,32.97
2019-05-15T18:20:58.148Z,32.28
2019-05-15T18:23:27.420Z,32.69
2019-05-15T18:25:58.435Z,32.69
2019-05-15T18:28:27.498Z,32.44
2019-05-15T18:30:58.566Z,32.44
2019-05-15T18:33:28.020Z,32.50
2019-05-15T18:35:58.116Z,30.65
2019-05-15T18:38:28.127Z,30.93
2019-05-15T18:40:58.318Z,29.37
2019-05-15T18:43:28.886Z,28.62
2019-05-15T18:45:58.714Z,28.62
2019-05-15T18:48:29.001Z,29.83
2019-05-15T18:51:04.477Z,30.18
2019-05-15T18:53:35.171Z,30.08
2019-05-15T18:56:14.238Z,30.15
2019-05-15T18:58:44.472Z,31.41
2019-05-15T19:05:00.135Z,31.22
2019-05-15T19:07:28.999Z,32.25
2019-05-15T19:09:58.014Z,31.67
2019-05-15T19:12:28.251Z,32.15
2019-05-15T19:14:58.876Z,33.08
2019-05-15T19:17:30.321Z,34.27
2019-05-15T19:20:00.220Z,33.34
2019-05-15T19:22:40.334Z,33.95
2019-05-15T19:25:08.813Z,33.93
2019-05-15T19:27:39.440Z,33.74
2019-05-15T19:30:09.172Z,35.04
2019-05-15T19:32:38.796Z,34.58
2019-05-15T19:35:08.992Z,34.32
2019-05-15T19:37:38.622Z,34.84
2019-05-15T19:40:08.997Z,35.78
2019-05-15T19:42:38.595Z,35.27
2019-05-15T19:45:21.712Z,35.74
2019-05-15T19:47:50.504Z,36.00
2019-05-15T19:50:20.225Z,34.81
2019-05-15T19:52:50.426Z,35.88
2019-05-15T19:55:21.733Z,35.45
2019-05-15T19:57:53.364Z,36.13
2019-05-15T20:00:23.110Z,35.90
2019-05-15T20:02:57.608Z,36.31
2019-05-15T20:05:26.056Z,36.39
2019-05-15T20:08:02.647Z,36.80
2019-05-15T20:10:32.019Z,36.36
2019-05-15T20:13:01.440Z,37.42
2019-05-15T20:15:30.423Z,37.33
2019-05-15T20:17:59.850Z,38.24
2019-05-15T20:20:29.251Z,38.27
2019-05-15T20:22:59.803Z,38.55
2019-05-15T20:25:32.936Z,38.53
2019-05-15T20:28:01.831Z,38.53
2019-05-15T20:30:30.966Z,39.62
2019-05-15T20:32:59.974Z,39.92
2019-05-15T20:35:31.598Z,39.94
2019-05-15T20:38:06.116Z,40.34
2019-05-15T20:40:35.419Z,40.07
2019-05-15T20:43:04.299Z,40.75
2019-05-15T20:45:36.728Z,40.63
2019-05-15T20:48:08.986Z,41.58
2019-05-15T20:50:38.675Z,41.49
2019-05-15T20:53:13.408Z,41.95
2019-05-15T20:55:42.830Z,41.71
2019-05-15T20:58:11.892Z,43.18
2019-05-15T21:00:41.177Z,42.88
2019-05-15T21:03:20.738Z,43.05
2019-05-15T21:05:50.308Z,44.24
2019-05-15T21:08:22.597Z,44.39
2019-05-15T21:10:52.156Z,44.75
2019-05-15T21:13:24.936Z,45.10
2019-05-15T21:15:58.530Z,45.49
2019-05-15T21:18:28.931Z,46.40
2019-05-15T21:20:58.070Z,46.05
2019-05-15T21:23:28.508Z,46.95
2019-05-15T21:25:59.322Z,47.88
2019-05-15T21:28:39.187Z,48.27
2019-05-15T21:31:03.933Z,48.40
2019-05-15T21:33:32.951Z,49.44
2019-05-15T21:36:05.071Z,49.03
2019-05-15T21:38:34.063Z,50.04
2019-05-15T21:41:02.856Z,50.17
2019-05-15T21:43:31.746Z,49.67
2019-05-15T21:46:00.652Z,51.06
2019-05-15T21:48:29.753Z,51.02
2019-05-15T21:50:58.707Z,52.04
2019-05-15T21:53:28.758Z,51.68
2019-05-15T21:55:58.846Z,52.30
2019-05-15T21:58:28.394Z,53.01
2019-05-15T22:00:58.572Z,53.18
2019-05-15T22:03:28.541Z,53.34
2019-05-15T22:05:58.262Z,53.26
2019-05-15T22:08:27.910Z,53.64
2019-05-15T22:10:56.835Z,54.35
2019-05-15T22:13:31.141Z,55.27
2019-05-15T22:15:58.765Z,55.27
2019-05-15T22:18:28.081Z,54.85
2019-05-15T22:20:58.564Z,55.06
2019-05-15T22:23:27.929Z,56.87
2019-05-15T22:25:58.409Z,57.25
2019-05-15T22:28:28.195Z,57.44
2019-05-15T22:30:58.385Z,57.73
2019-05-15T22:33:28.353Z,56.19
2019-05-15T22:35:59.247Z,56.92
2019-05-15T22:38:28.536Z,58.02
2019-05-15T22:40:57.387Z,58.97
2019-05-15T22:43:26.267Z,58.39
2019-05-15T22:45:55.117Z,60.02
2019-05-15T22:48:23.992Z,59.25
2019-05-15T22:50:52.785Z,58.57
2019-05-15T22:53:21.561Z,59.87
2019-05-15T22:55:50.785Z,59.83
2019-05-15T22:58:19.727Z,60.49
2019-05-15T23:00:49.104Z,59.40
2019-05-15T23:03:18.976Z,60.10
2019-05-15T23:05:47.796Z,59.61
2019-05-15T23:08:18.408Z,60.54
2019-05-15T23:10:48.583Z,59.48
2019-05-15T23:13:17.873Z,60.26
2019-05-15T23:15:47.703Z,59.60
2019-05-15T23:18:17.859Z,59.65
2019-05-15T23:20:47.864Z,60.13
2019-05-15T23:23:18.163Z,59.60
2019-05-15T23:25:48.574Z,59.70
2019-05-15T23:28:17.476Z,60.25
2019-05-15T23:30:48.405Z,59.76
2019-05-15T23:33:18.822Z,58.76
2019-05-15T23:35:48.600Z,60.27
2019-05-15T23:38:17.522Z,60.54
2019-05-15T23:40:48.343Z,60.20
2019-05-15T23:43:18.920Z,60.35
2019-05-15T23:45:48.385Z,60.54
2019-05-15T23:48:17.264Z,60.70
2019-05-15T23:50:48.451Z,61.14
2019-05-15T23:53:19.691Z,61.21
2019-05-15T23:55:47.164Z,60.78
2019-05-15T23:58:18.669Z,60.73
